Terminal Aerodrome Forecast
Issued by NWS Dodge City, KS

Home | Current Version | Previous Version | Graphics & Text | Print | Product List | Glossary Off
Versions: 1 2 3 4 5 6 7 8 9 10 11 12 13 14 15 16 17 18 19

000
FTUS43 KDDC 191720
TAFDDC
TAF
KDDC 191720Z 1918/2018 16011G26KT 6SM BR BKN040
     FM200300 16015G25KT 5SM BR VCSH OVC025
     FM200400 16014G24KT 5SM BR VCSH OVC010
     FM200500 17013G24KT 5SM BR OVC008
     FM200800 18013G22KT 3SM BR OVC015
     FM201600 31014KT P6SM FEW250=

USA.gov is the U.S. government's official web portal to all federal, state and local government web resources and services.